sensor_id;sensor_type;location;lat;lon;timestamp;pressure;altitude;pressure_sealevel;temperature;humidity
4705;BME280;2366;51.332;6.610;2023-01-29T00:00:50;102906.44;;;0.35;68.26
4705;BME280;2366;51.332;6.610;2023-01-29T00:03:16;102909.06;;;0.35;68.46
4705;BME280;2366;51.332;6.610;2023-01-29T00:05:41;102903.84;;;0.35;68.43
4705;BME280;2366;51.332;6.610;2023-01-29T00:08:06;102902.94;;;0.33;68.62
4705;BME280;2366;51.332;6.610;2023-01-29T00:10:32;102903.72;;;0.29;68.39
4705;BME280;2366;51.332;6.610;2023-01-29T00:12:57;102902.78;;;0.24;68.58
4705;BME280;2366;51.332;6.610;2023-01-29T00:15:22;102914.94;;;0.24;68.29
4705;BME280;2366;51.332;6.610;2023-01-29T00:17:48;102914.06;;;0.23;68.55
4705;BME280;2366;51.332;6.610;2023-01-29T00:20:13;102905.34;;;0.21;68.40
4705;BME280;2366;51.332;6.610;2023-01-29T00:22:39;102897.50;;;0.21;68.40
4705;BME280;2366;51.332;6.610;2023-01-29T00:25:05;102901.03;;;0.23;68.70
4705;BME280;2366;51.332;6.610;2023-01-29T00:27:30;102902.78;;;0.24;68.44
4705;BME280;2366;51.332;6.610;2023-01-29T00:29:56;102894.00;;;0.19;68.24
4705;BME280;2366;51.332;6.610;2023-01-29T00:32:34;102888.75;;;0.16;68.42
4705;BME280;2366;51.332;6.610;2023-01-29T00:34:59;102885.28;;;0.18;68.54
4705;BME280;2366;51.332;6.610;2023-01-29T00:37:25;102882.66;;;0.17;68.71
4705;BME280;2366;51.332;6.610;2023-01-29T00:39:50;102880.94;;;0.17;68.69
4705;BME280;2366;51.332;6.610;2023-01-29T00:42:15;102876.53;;;0.13;68.31
4705;BME280;2366;51.332;6.610;2023-01-29T00:44:59;102878.19;;;0.10;68.31
4705;BME280;2366;51.332;6.610;2023-01-29T00:47:25;102878.19;;;0.10;68.63
4705;BME280;2366;51.332;6.610;2023-01-29T00:50:01;102886.00;;;0.08;68.43
4705;BME280;2366;51.332;6.610;2023-01-29T00:52:27;102879.00;;;0.06;68.63
4705;BME280;2366;51.332;6.610;2023-01-29T00:54:54;102880.69;;;0.04;68.73
4705;BME280;2366;51.332;6.610;2023-01-29T00:57:23;102883.38;;;0.07;68.72
4705;BME280;2366;51.332;6.610;2023-01-29T00:59:49;102888.59;;;0.07;68.64
4705;BME280;2366;51.332;6.610;2023-01-29T01:02:15;102893.75;;;0.04;68.46
4705;BME280;2366;51.332;6.610;2023-01-29T01:04:59;102889.28;;;-0.04;68.35
4705;BME280;2366;51.332;6.610;2023-01-29T01:07:27;102890.97;;;-0.06;68.72
4705;BME280;2366;51.332;6.610;2023-01-29T01:09:53;102892.75;;;-0.03;68.82
4705;BME280;2366;51.332;6.610;2023-01-29T01:12:37;102887.56;;;-0.02;68.71
4705;BME280;2366;51.332;6.610;2023-01-29T01:15:02;102894.56;;;0.01;68.67
4705;BME280;2366;51.332;6.610;2023-01-29T01:17:28;102898.91;;;0.01;68.66
4705;BME280;2366;51.332;6.610;2023-01-29T01:19:53;102898.88;;;-0.01;68.45
4705;BME280;2366;51.332;6.610;2023-01-29T01:22:18;102880.59;;;-0.03;68.60
4705;BME280;2366;51.332;6.610;2023-01-29T01:24:44;102873.63;;;-0.04;68.80
4705;BME280;2366;51.332;6.610;2023-01-29T01:27:09;102867.50;;;-0.06;68.97
4705;BME280;2366;51.332;6.610;2023-01-29T01:29:35;102866.66;;;-0.03;69.01
4705;BME280;2366;51.332;6.610;2023-01-29T01:32:01;102861.53;;;0.00;68.97
4705;BME280;2366;51.332;6.610;2023-01-29T01:34:26;102857.19;;;0.01;68.99
4705;BME280;2366;51.332;6.610;2023-01-29T01:36:53;102857.19;;;0.01;68.94
4705;BME280;2366;51.332;6.610;2023-01-29T01:39:20;102858.00;;;-0.01;68.85
4705;BME280;2366;51.332;6.610;2023-01-29T01:41:45;102858.88;;;-0.02;68.98
4705;BME280;2366;51.332;6.610;2023-01-29T01:47:14;102847.47;;;-0.07;68.67
4705;BME280;2366;51.332;6.610;2023-01-29T01:49:41;102843.13;;;-0.08;68.96
4705;BME280;2366;51.332;6.610;2023-01-29T01:52:07;102843.13;;;-0.08;68.69
4705;BME280;2366;51.332;6.610;2023-01-29T01:54:33;102843.97;;;-0.09;68.85
4705;BME280;2366;51.332;6.610;2023-01-29T01:57:11;102850.03;;;-0.10;68.99
4705;BME280;2366;51.332;6.610;2023-01-29T01:59:42;102855.28;;;-0.08;68.57
4705;BME280;2366;51.332;6.610;2023-01-29T02:02:10;102859.59;;;-0.09;68.92
4705;BME280;2366;51.332;6.610;2023-01-29T02:04:54;102856.16;;;-0.08;69.08
4705;BME280;2366;51.332;6.610;2023-01-29T02:07:43;102857.84;;;-0.11;68.94
4705;BME280;2366;51.332;6.610;2023-01-29T02:10:31;102858.66;;;-0.14;69.11
4705;BME280;2366;51.332;6.610;2023-01-29T02:13:03;102862.19;;;-0.12;69.21
4705;BME280;2366;51.332;6.610;2023-01-29T02:15:29;102854.38;;;-0.10;69.24
4705;BME280;2366;51.332;6.610;2023-01-29T02:17:54;102865.66;;;-0.13;68.97
4705;BME280;2366;51.332;6.610;2023-01-29T02:20:24;102873.41;;;-0.16;69.07
4705;BME280;2366;51.332;6.610;2023-01-29T02:36:18;102891.38;;;0.19;69.89
4705;BME280;2366;51.332;6.610;2023-01-29T02:39:04;102895.03;;;0.30;69.91
4705;BME280;2366;51.332;6.610;2023-01-29T02:41:41;102893.44;;;0.38;69.81
4705;BME280;2366;51.332;6.610;2023-01-29T02:47:08;102880.47;;;0.45;69.50
4705;BME280;2366;51.332;6.610;2023-01-29T02:49:51;102877.84;;;0.42;69.52
4705;BME280;2366;51.332;6.610;2023-01-29T02:52:24;102867.31;;;0.38;69.58
4705;BME280;2366;51.332;6.610;2023-01-29T02:54:58;102871.66;;;0.36;69.52
4705;BME280;2366;51.332;6.610;2023-01-29T02:57:30;102866.38;;;0.33;69.43
4705;BME280;2366;51.332;6.610;2023-01-29T03:00:17;102862.75;;;0.22;69.52
4705;BME280;2366;51.332;6.610;2023-01-29T03:02:52;102863.47;;;0.15;69.26
4705;BME280;2366;51.332;6.610;2023-01-29T03:08:59;102856.41;;;0.08;69.37
4705;BME280;2366;51.332;6.610;2023-01-29T03:11:31;102865.03;;;0.04;69.47
4705;BME280;2366;51.332;6.610;2023-01-29T03:14:03;102878.06;;;0.02;69.47
4705;BME280;2366;51.332;6.610;2023-01-29T03:16:35;102869.34;;;0.02;69.51
4705;BME280;2366;51.332;6.610;2023-01-29T03:21:40;102871.13;;;0.03;69.74
4705;BME280;2366;51.332;6.610;2023-01-29T03:24:53;102872.88;;;0.04;69.65
4705;BME280;2366;51.332;6.610;2023-01-29T03:27:51;102870.19;;;-0.01;69.73
4705;BME280;2366;51.332;6.610;2023-01-29T03:30:47;102879.69;;;-0.05;69.58
4705;BME280;2366;51.332;6.610;2023-01-29T03:33:41;102881.34;;;-0.10;69.56
4705;BME280;2366;51.332;6.610;2023-01-29T03:36:12;102885.63;;;-0.13;69.51
4705;BME280;2366;51.332;6.610;2023-01-29T03:38:41;102875.97;;;-0.17;69.30
4705;BME280;2366;51.332;6.610;2023-01-29T03:41:27;102872.47;;;-0.21;69.71
4705;BME280;2366;51.332;6.610;2023-01-29T03:46:55;102868.13;;;-0.21;69.63
4705;BME280;2366;51.332;6.610;2023-01-29T03:49:40;102867.25;;;-0.21;69.50
4705;BME280;2366;51.332;6.610;2023-01-29T03:55:02;102871.53;;;-0.25;69.54
4705;BME280;2366;51.332;6.610;2023-01-29T03:57:37;102867.16;;;-0.24;69.52
4705;BME280;2366;51.332;6.610;2023-01-29T04:00:31;102863.66;;;-0.28;69.46
4705;BME280;2366;51.332;6.610;2023-01-29T04:05:43;102874.16;;;-0.23;69.73
4705;BME280;2366;51.332;6.610;2023-01-29T04:08:14;102865.53;;;-0.19;69.83
4705;BME280;2366;51.332;6.610;2023-01-29T04:10:42;102862.13;;;-0.13;69.71
4705;BME280;2366;51.332;6.610;2023-01-29T04:13:10;102857.06;;;-0.06;69.92
4705;BME280;2366;51.332;6.610;2023-01-29T04:15:57;102859.88;;;0.07;70.25
4705;BME280;2366;51.332;6.610;2023-01-29T04:18:24;102847.88;;;0.18;70.05
4705;BME280;2366;51.332;6.610;2023-01-29T04:20:50;102843.72;;;0.32;70.29
4705;BME280;2366;51.332;6.610;2023-01-29T04:23:24;102841.34;;;0.46;70.35
4705;BME280;2366;51.332;6.610;2023-01-29T04:31:45;102830.44;;;0.76;69.79
4705;BME280;2366;51.332;6.610;2023-01-29T04:34:27;102820.91;;;0.78;70.15
4705;BME280;2366;51.332;6.610;2023-01-29T04:37:13;102813.91;;;0.77;69.85
4705;BME280;2366;51.332;6.610;2023-01-29T04:39:48;102830.56;;;0.86;70.19
4705;BME280;2366;51.332;6.610;2023-01-29T04:42:29;102832.44;;;0.96;69.76
4705;BME280;2366;51.332;6.610;2023-01-29T04:45:06;102832.59;;;1.11;70.07
4705;BME280;2366;51.332;6.610;2023-01-29T04:50:15;102822.31;;;1.27;69.62
4705;BME280;2366;51.332;6.610;2023-01-29T04:52:48;102816.19;;;1.25;69.09
4705;BME280;2366;51.332;6.610;2023-01-29T04:55:40;102818.84;;;1.28;69.52
4705;BME280;2366;51.332;6.610;2023-01-29T04:58:11;102812.84;;;1.35;69.80
4705;BME280;2366;51.332;6.610;2023-01-29T05:00:42;102819.00;;;1.41;69.65
4705;BME280;2366;51.332;6.610;2023-01-29T05:03:11;102814.72;;;1.51;69.25
4705;BME280;2366;51.332;6.610;2023-01-29T05:05:41;102821.69;;;1.51;69.44
4705;BME280;2366;51.332;6.610;2023-01-29T05:08:08;102810.38;;;1.50;69.18
4705;BME280;2366;51.332;6.610;2023-01-29T05:10:35;102806.03;;;1.55;68.60
4705;BME280;2366;51.332;6.610;2023-01-29T05:13:04;102800.84;;;1.58;69.07
4705;BME280;2366;51.332;6.610;2023-01-29T05:15:36;102801.75;;;1.63;68.82
4705;BME280;2366;51.332;6.610;2023-01-29T05:18:03;102800.91;;;1.63;68.79
4705;BME280;2366;51.332;6.610;2023-01-29T05:20:34;102794.81;;;1.69;68.25
4705;BME280;2366;51.332;6.610;2023-01-29T05:23:00;102782.63;;;1.71;68.88
4705;BME280;2366;51.332;6.610;2023-01-29T05:25:28;102783.50;;;1.70;68.21
4705;BME280;2366;51.332;6.610;2023-01-29T05:27:54;102786.13;;;1.70;68.47
4705;BME280;2366;51.332;6.610;2023-01-29T05:30:37;102778.28;;;1.73;68.43
4705;BME280;2366;51.332;6.610;2023-01-29T05:33:04;102780.03;;;1.72;68.60
4705;BME280;2366;51.332;6.610;2023-01-29T05:35:33;102771.28;;;1.69;68.90
4705;BME280;2366;51.332;6.610;2023-01-29T05:37:59;102776.53;;;1.70;68.27
4705;BME280;2366;51.332;6.610;2023-01-29T05:40:24;102777.41;;;1.71;68.79
4705;BME280;2366;51.332;6.610;2023-01-29T05:42:50;102760.81;;;1.69;68.32
4705;BME280;2366;51.332;6.610;2023-01-29T05:45:16;102759.13;;;1.72;68.60
4705;BME280;2366;51.332;6.610;2023-01-29T05:47:42;102765.25;;;1.76;68.29
4705;BME280;2366;51.332;6.610;2023-01-29T05:50:08;102770.47;;;1.77;68.13
4705;BME280;2366;51.332;6.610;2023-01-29T05:52:33;102776.59;;;1.78;68.82
4705;BME280;2366;51.332;6.610;2023-01-29T05:54:58;102786.25;;;1.85;68.54
4705;BME280;2366;51.332;6.610;2023-01-29T05:57:24;102785.38;;;1.86;68.14
4705;BME280;2366;51.332;6.610;2023-01-29T05:59:49;102781.06;;;1.91;68.40
4705;BME280;2366;51.332;6.610;2023-01-29T06:02:14;102794.19;;;1.99;68.52
4705;BME280;2366;51.332;6.610;2023-01-29T06:04:40;102795.13;;;2.04;68.46
4705;BME280;2366;51.332;6.610;2023-01-29T06:07:05;102803.84;;;2.06;68.29
4705;BME280;2366;51.332;6.610;2023-01-29T06:09:30;102804.75;;;2.11;68.23
4705;BME280;2366;51.332;6.610;2023-01-29T06:11:56;102803.91;;;2.14;67.81
4705;BME280;2366;51.332;6.610;2023-01-29T06:14:21;102809.13;;;2.14;68.30
4705;BME280;2366;51.332;6.610;2023-01-29T06:16:46;102817.00;;;2.15;68.46
4705;BME280;2366;51.332;6.610;2023-01-29T06:19:12;102822.19;;;2.09;68.00
4705;BME280;2366;51.332;6.610;2023-01-29T06:21:37;102826.59;;;2.15;68.15
4705;BME280;2366;51.332;6.610;2023-01-29T06:24:03;102830.16;;;2.26;68.04
4705;BME280;2366;51.332;6.610;2023-01-29T06:26:28;102830.16;;;2.26;67.86
4705;BME280;2366;51.332;6.610;2023-01-29T06:28:54;102832.78;;;2.26;67.86
4705;BME280;2366;51.332;6.610;2023-01-29T06:31:19;102831.00;;;2.25;67.88
4705;BME280;2366;51.332;6.610;2023-01-29T06:33:44;102840.59;;;2.23;67.41
4705;BME280;2366;51.332;6.610;2023-01-29T06:36:10;102837.97;;;2.23;67.57
4705;BME280;2366;51.332;6.610;2023-01-29T06:38:35;102836.25;;;2.23;67.99
4705;BME280;2366;51.332;6.610;2023-01-29T06:41:08;102839.78;;;2.29;67.51
4705;BME280;2366;51.332;6.610;2023-01-29T06:43:34;102843.31;;;2.32;67.41
4705;BME280;2366;51.332;6.610;2023-01-29T06:45:59;102841.59;;;2.40;67.42
4705;BME280;2366;51.332;6.610;2023-01-29T06:48:24;102835.47;;;2.38;67.16
4705;BME280;2366;51.332;6.610;2023-01-29T06:50:50;102817.16;;;2.37;67.68
4705;BME280;2366;51.332;6.610;2023-01-29T06:53:17;102806.63;;;2.31;67.48
4705;BME280;2366;51.332;6.610;2023-01-29T06:55:50;102806.63;;;2.31;67.38
4705;BME280;2366;51.332;6.610;2023-01-29T06:58:16;102804.00;;;2.29;67.07
4705;BME280;2366;51.332;6.610;2023-01-29T07:00:42;102808.38;;;2.32;67.33
4705;BME280;2366;51.332;6.610;2023-01-29T07:03:08;102811.00;;;2.30;66.80
4705;BME280;2366;51.332;6.610;2023-01-29T07:05:33;102818.78;;;2.25;66.41
4705;BME280;2366;51.332;6.610;2023-01-29T07:07:59;102816.25;;;2.33;66.85
4705;BME280;2366;51.332;6.610;2023-01-29T07:10:24;102807.50;;;2.31;67.26
4705;BME280;2366;51.332;6.610;2023-01-29T07:12:49;102813.63;;;2.33;66.90
4705;BME280;2366;51.332;6.610;2023-01-29T07:15:15;102795.28;;;2.33;66.76
4705;BME280;2366;51.332;6.610;2023-01-29T07:17:54;102786.47;;;2.16;66.98
4705;BME280;2366;51.332;6.610;2023-01-29T07:20:20;102796.06;;;2.15;66.73
4705;BME280;2366;51.332;6.610;2023-01-29T07:22:45;102798.66;;;2.14;67.44
4705;BME280;2366;51.332;6.610;2023-01-29T07:25:10;102802.16;;;2.16;66.84
4705;BME280;2366;51.332;6.610;2023-01-29T07:27:36;102800.41;;;2.16;67.54
4705;BME280;2366;51.332;6.610;2023-01-29T07:30:01;102804.84;;;2.30;67.18
4705;BME280;2366;51.332;6.610;2023-01-29T07:32:27;102799.69;;;2.34;66.85
4705;BME280;2366;51.332;6.610;2023-01-29T07:34:52;102792.63;;;2.27;66.50
4705;BME280;2366;51.332;6.610;2023-01-29T07:37:18;102786.59;;;2.37;66.92
4705;BME280;2366;51.332;6.610;2023-01-29T07:39:43;102795.41;;;2.50;67.00
4705;BME280;2366;51.332;6.610;2023-01-29T07:42:10;102787.53;;;2.45;66.19
4705;BME280;2366;51.332;6.610;2023-01-29T07:44:35;102807.50;;;2.31;66.40
4705;BME280;2366;51.332;6.610;2023-01-29T07:47:01;102809.34;;;2.43;66.35
4705;BME280;2366;51.332;6.610;2023-01-29T07:49:26;102802.31;;;2.34;66.61
4705;BME280;2366;51.332;6.610;2023-01-29T07:51:51;102790.13;;;2.47;66.67
4705;BME280;2366;51.332;6.610;2023-01-29T07:54:17;102795.47;;;2.62;66.24
4705;BME280;2366;51.332;6.610;2023-01-29T07:56:42;102786.75;;;2.65;65.89
4705;BME280;2366;51.332;6.610;2023-01-29T07:59:08;102787.59;;;2.61;66.11
4705;BME280;2366;51.332;6.610;2023-01-29T08:01:33;102786.78;;;2.77;66.33
4705;BME280;2366;51.332;6.610;2023-01-29T08:03:58;102776.28;;;2.71;65.98
4705;BME280;2366;51.332;6.610;2023-01-29T08:06:23;102800.78;;;2.82;65.12
4705;BME280;2366;51.332;6.610;2023-01-29T08:08:49;102793.84;;;3.00;65.69
4705;BME280;2366;51.332;6.610;2023-01-29T08:11:14;102793.00;;;3.07;64.79
4705;BME280;2366;51.332;6.610;2023-01-29T08:13:40;102793.81;;;2.97;64.70
4705;BME280;2366;51.332;6.610;2023-01-29T08:16:05;102799.13;;;3.12;64.61
4705;BME280;2366;51.332;6.610;2023-01-29T08:18:30;102807.91;;;3.26;64.52
4705;BME280;2366;51.332;6.610;2023-01-29T08:21:00;102806.16;;;3.27;64.80
4705;BME280;2366;51.332;6.610;2023-01-29T08:23:25;102802.66;;;3.23;64.36
4705;BME280;2366;51.332;6.610;2023-01-29T08:25:51;102807.03;;;3.27;64.35
4705;BME280;2366;51.332;6.610;2023-01-29T08:28:16;102799.16;;;3.26;64.42
4705;BME280;2366;51.332;6.610;2023-01-29T08:30:42;102792.16;;;3.17;64.06
4705;BME280;2366;51.332;6.610;2023-01-29T08:33:08;102788.66;;;3.17;64.10
4705;BME280;2366;51.332;6.610;2023-01-29T08:35:33;102781.66;;;3.20;63.42
4705;BME280;2366;51.332;6.610;2023-01-29T08:38:00;102778.19;;;3.24;64.15
4705;BME280;2366;51.332;6.610;2023-01-29T08:40:28;102776.44;;;3.26;63.54
4705;BME280;2366;51.332;6.610;2023-01-29T08:43:00;102778.19;;;3.24;64.28
4705;BME280;2366;51.332;6.610;2023-01-29T08:45:26;102775.59;;;3.37;62.99
4705;BME280;2366;51.332;6.610;2023-01-29T08:47:51;102772.94;;;3.20;64.28
4705;BME280;2366;51.332;6.610;2023-01-29T08:50:17;102772.06;;;3.19;64.37
4705;BME280;2366;51.332;6.610;2023-01-29T08:52:43;102764.19;;;3.38;65.14
4705;BME280;2366;51.332;6.610;2023-01-29T08:55:09;102783.44;;;3.40;63.51
4705;BME280;2366;51.332;6.610;2023-01-29T08:57:37;102780.81;;;3.41;64.03
4705;BME280;2366;51.332;6.610;2023-01-29T09:00:03;102776.44;;;3.36;64.30
4705;BME280;2366;51.332;6.610;2023-01-29T09:02:29;102759.84;;;3.37;63.92
4705;BME280;2366;51.332;6.610;2023-01-29T09:04:54;102760.72;;;3.36;63.87
4705;BME280;2366;51.332;6.610;2023-01-29T09:07:20;102741.47;;;3.40;63.73
4705;BME280;2366;51.332;6.610;2023-01-29T09:09:45;102742.38;;;3.43;63.80
4705;BME280;2366;51.332;6.610;2023-01-29T09:12:11;102744.09;;;3.44;64.17
4705;BME280;2366;51.332;6.610;2023-01-29T09:14:36;102741.47;;;3.40;63.88
4705;BME280;2366;51.332;6.610;2023-01-29T09:17:02;102756.34;;;3.65;64.33
4705;BME280;2366;51.332;6.610;2023-01-29T09:19:27;102760.72;;;3.76;63.43
4705;BME280;2366;51.332;6.610;2023-01-29T09:21:52;102758.97;;;3.72;63.82
4705;BME280;2366;51.332;6.610;2023-01-29T09:24:17;102746.75;;;3.69;62.75
4705;BME280;2366;51.332;6.610;2023-01-29T09:26:43;102743.22;;;3.82;63.23
4705;BME280;2366;51.332;6.610;2023-01-29T09:29:09;102745.84;;;3.82;62.80
4705;BME280;2366;51.332;6.610;2023-01-29T09:31:35;102740.59;;;3.93;62.71
4705;BME280;2366;51.332;6.610;2023-01-29T09:34:00;102742.31;;;4.02;62.72
4705;BME280;2366;51.332;6.610;2023-01-29T09:36:25;102744.06;;;3.86;62.59
4705;BME280;2366;51.332;6.610;2023-01-29T09:38:51;102746.72;;;4.01;62.44
4705;BME280;2366;51.332;6.610;2023-01-29T09:44:04;102740.53;;;4.21;62.18
4705;BME280;2366;51.332;6.610;2023-01-29T09:46:40;102731.78;;;4.19;61.86
4705;BME280;2366;51.332;6.610;2023-01-29T09:51:50;102730.81;;;4.44;62.18
4705;BME280;2366;51.332;6.610;2023-01-29T09:57:28;102728.22;;;4.35;61.93
4705;BME280;2366;51.332;6.610;2023-01-29T09:59:58;102723.81;;;4.45;61.61
4705;BME280;2366;51.332;6.610;2023-01-29T10:02:52;102724.69;;;4.38;61.53
4705;BME280;2366;51.332;6.610;2023-01-29T10:11:32;102730.75;;;4.61;61.44
4705;BME280;2366;51.332;6.610;2023-01-29T10:25:21;102739.44;;;4.77;60.86
4705;BME280;2366;51.332;6.610;2023-01-29T10:27:50;102731.53;;;4.79;60.60
4705;BME280;2366;51.332;6.610;2023-01-29T10:32:48;102718.41;;;4.77;60.94
4705;BME280;2366;51.332;6.610;2023-01-29T10:35:23;102722.75;;;4.86;60.73
4705;BME280;2366;51.332;6.610;2023-01-29T10:37:52;102720.09;;;4.87;59.99
4705;BME280;2366;51.332;6.610;2023-01-29T10:40:36;102727.03;;;4.96;60.66
4705;BME280;2366;51.332;6.610;2023-01-29T10:43:33;102711.19;;;5.07;59.73
4705;BME280;2366;51.332;6.610;2023-01-29T10:54:09;102705.88;;;5.16;59.90
4705;BME280;2366;51.332;6.610;2023-01-29T10:57:04;102695.34;;;5.16;59.49
4705;BME280;2366;51.332;6.610;2023-01-29T11:02:14;102689.19;;;5.23;60.51
4705;BME280;2366;51.332;6.610;2023-01-29T11:04:41;102685.56;;;5.38;59.84
4705;BME280;2366;51.332;6.610;2023-01-29T11:07:07;102689.91;;;5.41;59.21
4705;BME280;2366;51.332;6.610;2023-01-29T11:09:53;102682.84;;;5.49;59.87
4705;BME280;2366;51.332;6.610;2023-01-29T11:12:23;102667.91;;;5.46;59.21
4705;BME280;2366;51.332;6.610;2023-01-29T11:14:58;102661.03;;;5.36;59.32
4705;BME280;2366;51.332;6.610;2023-01-29T11:17:25;102658.31;;;5.44;59.50
4705;BME280;2366;51.332;6.610;2023-01-29T11:19:52;102651.38;;;5.37;60.06
4705;BME280;2366;51.332;6.610;2023-01-29T11:22:26;102649.59;;;5.39;59.72
4705;BME280;2366;51.332;6.610;2023-01-29T11:25:19;102657.34;;;5.52;58.84
4705;BME280;2366;51.332;6.610;2023-01-29T11:27:51;102655.66;;;5.47;59.87
4705;BME280;2366;51.332;6.610;2023-01-29T11:30:37;102648.59;;;5.52;59.16
4705;BME280;2366;51.332;6.610;2023-01-29T11:33:11;102642.41;;;5.56;59.69
4705;BME280;2366;51.332;6.610;2023-01-29T11:35:42;102632.69;;;5.63;59.51
4705;BME280;2366;51.332;6.610;2023-01-29T11:40:40;102638.69;;;5.75;59.23
4705;BME280;2366;51.332;6.610;2023-01-29T11:45:50;102633.44;;;5.75;58.95
4705;BME280;2366;51.332;6.610;2023-01-29T11:48:25;102621.16;;;5.74;58.91
4705;BME280;2366;51.332;6.610;2023-01-29T11:50:58;102605.47;;;5.65;59.37
4705;BME280;2366;51.332;6.610;2023-01-29T11:53:36;102599.50;;;5.51;59.33
4705;BME280;2366;51.332;6.610;2023-01-29T11:56:05;102598.63;;;5.49;59.07
4705;BME280;2366;51.332;6.610;2023-01-29T11:58:40;102588.13;;;5.46;59.94
4705;BME280;2366;51.332;6.610;2023-01-29T12:01:06;102588.88;;;5.57;58.72
4705;BME280;2366;51.332;6.610;2023-01-29T12:03:43;102580.91;;;5.63;59.74
4705;BME280;2366;51.332;6.610;2023-01-29T12:06:19;102564.25;;;5.64;59.55
4705;BME280;2366;51.332;6.610;2023-01-29T12:08:59;102557.09;;;5.72;59.12
4705;BME280;2366;51.332;6.610;2023-01-29T12:11:31;102559.53;;;5.92;58.99
4705;BME280;2366;51.332;6.610;2023-01-29T12:13:59;102550.72;;;5.92;58.92
4705;BME280;2366;51.332;6.610;2023-01-29T12:19:26;102545.34;;;6.06;58.21
4705;BME280;2366;51.332;6.610;2023-01-29T12:22:05;102538.16;;;6.15;59.00
4705;BME280;2366;51.332;6.610;2023-01-29T12:27:18;102521.56;;;6.12;58.17
4705;BME280;2366;51.332;6.610;2023-01-29T12:29:56;102511.72;;;6.22;58.14
4705;BME280;2366;51.332;6.610;2023-01-29T12:32:34;102504.75;;;6.21;58.01
4705;BME280;2366;51.332;6.610;2023-01-29T12:35:21;102499.53;;;6.16;57.54
4705;BME280;2366;51.332;6.610;2023-01-29T12:38:02;102488.03;;;6.20;58.36
4705;BME280;2366;51.332;6.610;2023-01-29T12:40:32;102483.53;;;6.28;58.05
4705;BME280;2366;51.332;6.610;2023-01-29T12:43:05;102471.13;;;6.35;58.28
4705;BME280;2366;51.332;6.610;2023-01-29T12:45:36;102478.19;;;6.33;57.73
4705;BME280;2366;51.332;6.610;2023-01-29T12:48:07;102460.47;;;6.43;56.95
4705;BME280;2366;51.332;6.610;2023-01-29T12:50:36;102463.88;;;6.49;57.63
4705;BME280;2366;51.332;6.610;2023-01-29T12:53:24;102469.81;;;6.64;57.50
4705;BME280;2366;51.332;6.610;2023-01-29T12:55:54;102462.97;;;6.50;57.63
4705;BME280;2366;51.332;6.610;2023-01-29T12:58:28;102457.81;;;6.44;57.18
4705;BME280;2366;51.332;6.610;2023-01-29T13:01:02;102442.31;;;6.24;57.64
4705;BME280;2366;51.332;6.610;2023-01-29T13:03:38;102442.91;;;6.42;58.00
4705;BME280;2366;51.332;6.610;2023-01-29T13:06:14;102440.25;;;6.43;57.34
4705;BME280;2366;51.332;6.610;2023-01-29T13:08:44;102428.25;;;6.25;58.08
4705;BME280;2366;51.332;6.610;2023-01-29T13:11:25;102435.41;;;6.17;58.16
4705;BME280;2366;51.332;6.610;2023-01-29T13:13:56;102426.25;;;6.41;58.95
4705;BME280;2366;51.332;6.610;2023-01-29T13:16:34;102430.31;;;6.59;58.77
4705;BME280;2366;51.332;6.610;2023-01-29T13:19:05;102431.13;;;6.64;57.31
4705;BME280;2366;51.332;6.610;2023-01-29T13:21:37;102430.38;;;6.57;57.58
4705;BME280;2366;51.332;6.610;2023-01-29T13:24:10;102429.56;;;6.52;57.82
4705;BME280;2366;51.332;6.610;2023-01-29T13:26:37;102436.75;;;6.44;58.13
4705;BME280;2366;51.332;6.610;2023-01-29T13:29:03;102434.72;;;6.58;57.79
4705;BME280;2366;51.332;6.610;2023-01-29T13:31:32;102437.25;;;6.65;57.69
4705;BME280;2366;51.332;6.610;2023-01-29T13:34:14;102437.19;;;6.68;57.49
4705;BME280;2366;51.332;6.610;2023-01-29T13:36:51;102434.69;;;6.62;57.27
4705;BME280;2366;51.332;6.610;2023-01-29T13:39:26;102433.69;;;6.67;57.61
4705;BME280;2366;51.332;6.610;2023-01-29T13:41:53;102437.19;;;6.68;57.37
4705;BME280;2366;51.332;6.610;2023-01-29T13:44:22;102435.63;;;6.57;57.26
4705;BME280;2366;51.332;6.610;2023-01-29T13:47:03;102438.28;;;6.57;57.63
4705;BME280;2366;51.332;6.610;2023-01-29T13:49:32;102440.91;;;6.57;57.18
4705;BME280;2366;51.332;6.610;2023-01-29T13:51:58;102431.22;;;6.58;57.41
4705;BME280;2366;51.332;6.610;2023-01-29T13:54:37;102434.16;;;6.41;57.26
4705;BME280;2366;51.332;6.610;2023-01-29T13:57:02;102434.06;;;6.46;57.18
4705;BME280;2366;51.332;6.610;2023-01-29T13:59:53;102434.88;;;6.51;56.97
4705;BME280;2366;51.332;6.610;2023-01-29T14:02:27;102430.38;;;6.57;57.17
4705;BME280;2366;51.332;6.610;2023-01-29T14:07:53;102416.16;;;6.65;56.37
4705;BME280;2366;51.332;6.610;2023-01-29T14:10:22;102414.75;;;6.45;56.07
4705;BME280;2366;51.332;6.610;2023-01-29T14:12:50;102411.06;;;6.55;56.50
4705;BME280;2366;51.332;6.610;2023-01-29T14:15:18;102407.41;;;6.63;55.63
4705;BME280;2366;51.332;6.610;2023-01-29T14:26:25;102394.44;;;6.52;56.18
4705;BME280;2366;51.332;6.610;2023-01-29T14:34:06;102391.13;;;6.41;56.17
4705;BME280;2366;51.332;6.610;2023-01-29T14:36:38;102399.84;;;6.44;56.46
4705;BME280;2366;51.332;6.610;2023-01-29T14:39:05;102388.28;;;6.51;55.65
4705;BME280;2366;51.332;6.610;2023-01-29T14:41:32;102391.97;;;6.41;55.53
4705;BME280;2366;51.332;6.610;2023-01-29T14:47:02;102389.59;;;6.27;56.44
4705;BME280;2366;51.332;6.610;2023-01-29T14:49:47;102383.41;;;6.30;56.47
4705;BME280;2366;51.332;6.610;2023-01-29T14:52:13;102385.28;;;6.22;56.92
4705;BME280;2366;51.332;6.610;2023-01-29T14:54:40;102380.75;;;6.31;56.97
4705;BME280;2366;51.332;6.610;2023-01-29T14:57:10;102380.59;;;6.41;56.51
4705;BME280;2366;51.332;6.610;2023-01-29T14:59:58;102377.03;;;6.42;56.44
4705;BME280;2366;51.332;6.610;2023-01-29T15:02:27;102382.31;;;6.42;55.51
4705;BME280;2366;51.332;6.610;2023-01-29T15:05:02;102371.94;;;6.31;56.29
4705;BME280;2366;51.332;6.610;2023-01-29T15:07:33;102373.63;;;6.35;56.58
4705;BME280;2366;51.332;6.610;2023-01-29T15:10:15;102388.59;;;6.33;56.38
4705;BME280;2366;51.332;6.610;2023-01-29T15:12:47;102385.00;;;6.40;56.02
4705;BME280;2366;51.332;6.610;2023-01-29T15:15:23;102384.91;;;6.43;56.24
4705;BME280;2366;51.332;6.610;2023-01-29T15:18:08;102376.34;;;6.30;55.48
4705;BME280;2366;51.332;6.610;2023-01-29T15:20:41;102369.53;;;6.19;56.33
4705;BME280;2366;51.332;6.610;2023-01-29T15:23:24;102367.69;;;6.24;56.97
4705;BME280;2366;51.332;6.610;2023-01-29T15:25:52;102367.75;;;6.21;56.25
4705;BME280;2366;51.332;6.610;2023-01-29T15:28:19;102359.69;;;6.30;55.86
4705;BME280;2366;51.332;6.610;2023-01-29T15:30:45;102361.47;;;6.29;56.99